sensor_id;sensor_type;location;lat;lon;timestamp;temperature;humidity
67005;HTU21D;53920;51.094;5.902;2022-08-11T00:00:09;20.74;51.35
67005;HTU21D;53920;51.094;5.902;2022-08-11T00:02:43;20.69;51.53
67005;HTU21D;53920;51.094;5.902;2022-08-11T00:05:16;20.65;51.99
67005;HTU21D;53920;51.094;5.902;2022-08-11T00:15:03;20.49;52.33
67005;HTU21D;53920;51.094;5.902;2022-08-11T00:17:33;20.48;52.80
67005;HTU21D;53920;51.094;5.902;2022-08-11T00:20:06;20.45;52.97
67005;HTU21D;53920;51.094;5.902;2022-08-11T00:22:36;20.44;53.39
67005;HTU21D;53920;51.094;5.902;2022-08-11T00:25:13;20.44;53.47
67005;HTU21D;53920;51.094;5.902;2022-08-11T00:27:40;20.44;53.45
67005;HTU21D;53920;51.094;5.902;2022-08-11T00:30:10;20.43;53.68
67005;HTU21D;53920;51.094;5.902;2022-08-11T00:32:38;20.40;54.09
67005;HTU21D;53920;51.094;5.902;2022-08-11T00:35:10;20.39;53.92
67005;HTU21D;53920;51.094;5.902;2022-08-11T00:37:38;20.34;53.95
67005;HTU21D;53920;51.094;5.902;2022-08-11T00:40:27;20.34;54.13
67005;HTU21D;53920;51.094;5.902;2022-08-11T00:43:40;20.35;54.07
67005;HTU21D;53920;51.094;5.902;2022-08-11T00:49:05;20.33;53.84
67005;HTU21D;53920;51.094;5.902;2022-08-11T01:28:13;19.72;54.81
67005;HTU21D;53920;51.094;5.902;2022-08-11T01:37:01;19.66;55.52
67005;HTU21D;53920;51.094;5.902;2022-08-11T01:45:45;19.54;56.17
67005;HTU21D;53920;51.094;5.902;2022-08-11T01:51:23;19.45;56.33
67005;HTU21D;53920;51.094;5.902;2022-08-11T01:54:30;19.39;55.74
67005;HTU21D;53920;51.094;5.902;2022-08-11T01:57:35;19.31;55.78
67005;HTU21D;53920;51.094;5.902;2022-08-11T02:00:13;19.29;55.55
67005;HTU21D;53920;51.094;5.902;2022-08-11T02:03:00;19.18;55.65
67005;HTU21D;53920;51.094;5.902;2022-08-11T02:05:58;19.14;55.89
67005;HTU21D;53920;51.094;5.902;2022-08-11T02:11:19;19.06;56.29
67005;HTU21D;53920;51.094;5.902;2022-08-11T02:17:16;18.96;56.97
67005;HTU21D;53920;51.094;5.902;2022-08-11T02:19:51;18.95;57.16
67005;HTU21D;53920;51.094;5.902;2022-08-11T02:22:50;18.91;57.42
67005;HTU21D;53920;51.094;5.902;2022-08-11T02:25:56;18.88;57.71
67005;HTU21D;53920;51.094;5.902;2022-08-11T02:31:11;18.86;57.80
67005;HTU21D;53920;51.094;5.902;2022-08-11T02:39:41;18.69;58.33
67005;HTU21D;53920;51.094;5.902;2022-08-11T02:48:49;18.50;58.40
67005;HTU21D;53920;51.094;5.902;2022-08-11T02:51:41;18.44;58.30
67005;HTU21D;53920;51.094;5.902;2022-08-11T02:54:38;18.39;58.67
67005;HTU21D;53920;51.094;5.902;2022-08-11T02:57:20;18.35;58.87
67005;HTU21D;53920;51.094;5.902;2022-08-11T02:59:54;18.30;59.12
67005;HTU21D;53920;51.094;5.902;2022-08-11T03:05:46;18.15;59.88
67005;HTU21D;53920;51.094;5.902;2022-08-11T03:08:17;18.12;59.93
67005;HTU21D;53920;51.094;5.902;2022-08-11T03:11:11;18.11;60.11
67005;HTU21D;53920;51.094;5.902;2022-08-11T03:26:12;17.92;60.61
67005;HTU21D;53920;51.094;5.902;2022-08-11T03:28:42;17.87;60.73
67005;HTU21D;53920;51.094;5.902;2022-08-11T03:31:33;17.82;60.55
67005;HTU21D;53920;51.094;5.902;2022-08-11T03:34:16;17.73;60.80
67005;HTU21D;53920;51.094;5.902;2022-08-11T03:42:19;17.65;61.60
67005;HTU21D;53920;51.094;5.902;2022-08-11T03:45:25;17.64;61.76
67005;HTU21D;53920;51.094;5.902;2022-08-11T03:48:15;17.62;62.13
67005;HTU21D;53920;51.094;5.902;2022-08-11T03:53:43;17.60;62.60
67005;HTU21D;53920;51.094;5.902;2022-08-11T04:02:17;17.54;62.89
67005;HTU21D;53920;51.094;5.902;2022-08-11T04:16:40;17.37;62.41
67005;HTU21D;53920;51.094;5.902;2022-08-11T04:36:52;17.31;62.30
67005;HTU21D;53920;51.094;5.902;2022-08-11T04:46:10;17.26;63.18
67005;HTU21D;53920;51.094;5.902;2022-08-11T05:12:31;17.49;63.24
67005;HTU21D;53920;51.094;5.902;2022-08-11T05:15:01;17.51;63.11
67005;HTU21D;53920;51.094;5.902;2022-08-11T05:18:12;17.58;63.31
67005;HTU21D;53920;51.094;5.902;2022-08-11T05:21:06;17.63;63.64
67005;HTU21D;53920;51.094;5.902;2022-08-11T05:23:57;17.69;62.93
67005;HTU21D;53920;51.094;5.902;2022-08-11T05:26:48;17.73;62.44
67005;HTU21D;53920;51.094;5.902;2022-08-11T05:32:45;17.76;62.27
67005;HTU21D;53920;51.094;5.902;2022-08-11T05:35:46;17.82;62.02
67005;HTU21D;53920;51.094;5.902;2022-08-11T05:38:22;17.90;62.15
67005;HTU21D;53920;51.094;5.902;2022-08-11T05:41:11;17.99;62.41
67005;HTU21D;53920;51.094;5.902;2022-08-11T05:44:02;18.12;62.09
67005;HTU21D;53920;51.094;5.902;2022-08-11T05:46:48;18.24;61.64
67005;HTU21D;53920;51.094;5.902;2022-08-11T05:49:35;18.36;61.71
67005;HTU21D;53920;51.094;5.902;2022-08-11T05:52:23;18.49;61.60
67005;HTU21D;53920;51.094;5.902;2022-08-11T05:55:10;18.61;61.38
67005;HTU21D;53920;51.094;5.902;2022-08-11T05:58:00;18.76;60.53
67005;HTU21D;53920;51.094;5.902;2022-08-11T06:00:27;18.95;59.47
67005;HTU21D;53920;51.094;5.902;2022-08-11T06:02:57;19.10;59.50
67005;HTU21D;53920;51.094;5.902;2022-08-11T06:05:34;19.27;59.55
67005;HTU21D;53920;51.094;5.902;2022-08-11T06:08:03;19.42;59.19
67005;HTU21D;53920;51.094;5.902;2022-08-11T06:10:36;19.58;58.25
67005;HTU21D;53920;51.094;5.902;2022-08-11T06:13:05;19.76;57.61
67005;HTU21D;53920;51.094;5.902;2022-08-11T06:15:33;19.95;57.06
67005;HTU21D;53920;51.094;5.902;2022-08-11T06:18:11;20.12;55.89
67005;HTU21D;53920;51.094;5.902;2022-08-11T06:21:00;20.32;55.65
67005;HTU21D;53920;51.094;5.902;2022-08-11T06:23:32;20.51;55.35
67005;HTU21D;53920;51.094;5.902;2022-08-11T06:26:00;20.70;55.07
67005;HTU21D;53920;51.094;5.902;2022-08-11T06:28:35;20.86;53.94
67005;HTU21D;53920;51.094;5.902;2022-08-11T06:31:18;21.00;53.04
67005;HTU21D;53920;51.094;5.902;2022-08-11T06:34:02;21.16;52.75
67005;HTU21D;53920;51.094;5.902;2022-08-11T06:36:54;21.31;52.27
67005;HTU21D;53920;51.094;5.902;2022-08-11T06:39:47;21.49;51.06
67005;HTU21D;53920;51.094;5.902;2022-08-11T06:45:27;21.81;49.60
67005;HTU21D;53920;51.094;5.902;2022-08-11T06:47:55;21.95;49.62
67005;HTU21D;53920;51.094;5.902;2022-08-11T06:50:27;22.07;48.63
67005;HTU21D;53920;51.094;5.902;2022-08-11T06:53:16;22.24;48.96
67005;HTU21D;53920;51.094;5.902;2022-08-11T06:55:45;22.39;48.43
67005;HTU21D;53920;51.094;5.902;2022-08-11T06:58:38;22.56;48.19
67005;HTU21D;53920;51.094;5.902;2022-08-11T07:04:35;23.09;46.39
67005;HTU21D;53920;51.094;5.902;2022-08-11T07:12:40;29.98;30.56
67005;HTU21D;53920;51.094;5.902;2022-08-11T07:15:34;31.86;26.95
67005;HTU21D;53920;51.094;5.902;2022-08-11T07:18:16;33.26;24.38
67005;HTU21D;53920;51.094;5.902;2022-08-11T07:21:14;34.67;22.25
67005;HTU21D;53920;51.094;5.902;2022-08-11T07:24:03;35.68;20.21
67005;HTU21D;53920;51.094;5.902;2022-08-11T07:26:54;36.26;19.29
67005;HTU21D;53920;51.094;5.902;2022-08-11T07:29:44;36.83;18.35
67005;HTU21D;53920;51.094;5.902;2022-08-11T07:32:29;37.31;17.48
67005;HTU21D;53920;51.094;5.902;2022-08-11T07:35:17;37.80;16.69
67005;HTU21D;53920;51.094;5.902;2022-08-11T07:37:56;38.05;16.30
67005;HTU21D;53920;51.094;5.902;2022-08-11T07:40:27;38.33;16.09
67005;HTU21D;53920;51.094;5.902;2022-08-11T07:42:55;38.74;15.61
67005;HTU21D;53920;51.094;5.902;2022-08-11T07:45:25;39.13;14.98
67005;HTU21D;53920;51.094;5.902;2022-08-11T07:48:11;39.29;14.68
67005;HTU21D;53920;51.094;5.902;2022-08-11T07:50:59;39.77;14.32
67005;HTU21D;53920;51.094;5.902;2022-08-11T07:53:45;39.56;14.26
67005;HTU21D;53920;51.094;5.902;2022-08-11T07:56:13;39.51;13.97
67005;HTU21D;53920;51.094;5.902;2022-08-11T07:58:42;39.69;13.81
67005;HTU21D;53920;51.094;5.902;2022-08-11T08:01:30;40.17;13.16
67005;HTU21D;53920;51.094;5.902;2022-08-11T08:04:17;40.23;12.53
67005;HTU21D;53920;51.094;5.902;2022-08-11T08:07:03;40.51;12.23
67005;HTU21D;53920;51.094;5.902;2022-08-11T08:09:49;40.19;12.25
67005;HTU21D;53920;51.094;5.902;2022-08-11T08:12:35;39.62;12.53
67005;HTU21D;53920;51.094;5.902;2022-08-11T08:15:21;39.41;13.02
67005;HTU21D;53920;51.094;5.902;2022-08-11T08:18:07;40.13;12.13
67005;HTU21D;53920;51.094;5.902;2022-08-11T08:20:37;40.17;12.02
67005;HTU21D;53920;51.094;5.902;2022-08-11T08:23:05;40.62;11.40
67005;HTU21D;53920;51.094;5.902;2022-08-11T08:25:34;41.03;11.10
67005;HTU21D;53920;51.094;5.902;2022-08-11T08:28:06;41.42;10.37
67005;HTU21D;53920;51.094;5.902;2022-08-11T08:30:32;41.72;10.36
67005;HTU21D;53920;51.094;5.902;2022-08-11T08:35:45;41.88;10.01
67005;HTU21D;53920;51.094;5.902;2022-08-11T08:38:13;42.15;9.92
67005;HTU21D;53920;51.094;5.902;2022-08-11T08:40:42;42.41;9.56
67005;HTU21D;53920;51.094;5.902;2022-08-11T08:43:14;42.32;9.85
67005;HTU21D;53920;51.094;5.902;2022-08-11T08:45:43;42.70;9.63
67005;HTU21D;53920;51.094;5.902;2022-08-11T08:48:18;43.27;9.05
67005;HTU21D;53920;51.094;5.902;2022-08-11T08:50:54;43.49;8.85
67005;HTU21D;53920;51.094;5.902;2022-08-11T08:53:47;43.66;8.34
67005;HTU21D;53920;51.094;5.902;2022-08-11T08:56:15;43.48;8.34
67005;HTU21D;53920;51.094;5.902;2022-08-11T08:58:45;43.16;8.79
67005;HTU21D;53920;51.094;5.902;2022-08-11T09:01:15;43.44;8.64
67005;HTU21D;53920;51.094;5.902;2022-08-11T09:03:42;43.68;7.95
67005;HTU21D;53920;51.094;5.902;2022-08-11T09:06:10;43.88;8.18
67005;HTU21D;53920;51.094;5.902;2022-08-11T09:08:36;44.07;7.73
67005;HTU21D;53920;51.094;5.902;2022-08-11T09:11:05;44.20;7.50
67005;HTU21D;53920;51.094;5.902;2022-08-11T09:13:51;44.05;7.93
67005;HTU21D;53920;51.094;5.902;2022-08-11T09:16:18;44.44;7.39
67005;HTU21D;53920;51.094;5.902;2022-08-11T09:18:45;44.47;6.82
67005;HTU21D;53920;51.094;5.902;2022-08-11T09:21:14;44.40;7.21
67005;HTU21D;53920;51.094;5.902;2022-08-11T09:23:42;44.25;7.39
67005;HTU21D;53920;51.094;5.902;2022-08-11T09:26:28;44.56;6.85
67005;HTU21D;53920;51.094;5.902;2022-08-11T09:29:16;44.71;6.36
67005;HTU21D;53920;51.094;5.902;2022-08-11T09:31:42;44.96;6.34
67005;HTU21D;53920;51.094;5.902;2022-08-11T09:34:10;45.19;6.08
67005;HTU21D;53920;51.094;5.902;2022-08-11T09:36:40;45.18;6.15
67005;HTU21D;53920;51.094;5.902;2022-08-11T09:39:31;45.50;5.44
67005;HTU21D;53920;51.094;5.902;2022-08-11T09:42:40;45.38;5.38
67005;HTU21D;53920;51.094;5.902;2022-08-11T09:45:26;45.31;5.75
67005;HTU21D;53920;51.094;5.902;2022-08-11T09:47:53;45.54;5.63
67005;HTU21D;53920;51.094;5.902;2022-08-11T09:50:22;45.31;5.50
67005;HTU21D;53920;51.094;5.902;2022-08-11T09:52:49;45.24;5.34
67005;HTU21D;53920;51.094;5.902;2022-08-11T09:55:16;45.43;5.31
67005;HTU21D;53920;51.094;5.902;2022-08-11T09:57:45;45.74;5.28
67005;HTU21D;53920;51.094;5.902;2022-08-11T10:00:32;46.02;4.98
67005;HTU21D;53920;51.094;5.902;2022-08-11T10:03:05;46.12;5.05
67005;HTU21D;53920;51.094;5.902;2022-08-11T10:05:32;46.30;5.00
67005;HTU21D;53920;51.094;5.902;2022-08-11T10:08:20;46.03;4.60
67005;HTU21D;53920;51.094;5.902;2022-08-11T10:10:50;45.95;4.83
67005;HTU21D;53920;51.094;5.902;2022-08-11T10:13:19;46.00;4.44
67005;HTU21D;53920;51.094;5.902;2022-08-11T10:15:54;46.20;4.64
67005;HTU21D;53920;51.094;5.902;2022-08-11T10:18:41;46.62;3.64
67005;HTU21D;53920;51.094;5.902;2022-08-11T10:23:57;45.01;4.10
67005;HTU21D;53920;51.094;5.902;2022-08-11T10:26:43;45.19;4.03
67005;HTU21D;53920;51.094;5.902;2022-08-11T10:29:40;44.77;4.01
67005;HTU21D;53920;51.094;5.902;2022-08-11T10:32:28;44.30;4.27
67005;HTU21D;53920;51.094;5.902;2022-08-11T10:35:17;44.38;4.24
67005;HTU21D;53920;51.094;5.902;2022-08-11T10:37:46;44.64;3.77
67005;HTU21D;53920;51.094;5.902;2022-08-11T10:40:17;45.31;3.46
67005;HTU21D;53920;51.094;5.902;2022-08-11T10:42:51;46.09;3.28
67005;HTU21D;53920;51.094;5.902;2022-08-11T10:45:36;45.99;2.96
67005;HTU21D;53920;51.094;5.902;2022-08-11T10:48:24;45.89;2.84
67005;HTU21D;53920;51.094;5.902;2022-08-11T10:50:51;46.30;2.71
67005;HTU21D;53920;51.094;5.902;2022-08-11T10:53:49;46.64;2.17
67005;HTU21D;53920;51.094;5.902;2022-08-11T10:56:36;46.03;2.64
67005;HTU21D;53920;51.094;5.902;2022-08-11T10:59:25;45.05;3.19
67005;HTU21D;53920;51.094;5.902;2022-08-11T11:01:52;44.67;3.36
67005;HTU21D;53920;51.094;5.902;2022-08-11T11:04:32;44.68;3.35
67005;HTU21D;53920;51.094;5.902;2022-08-11T11:07:16;44.48;3.45
67005;HTU21D;53920;51.094;5.902;2022-08-11T11:09:50;43.52;4.15
67005;HTU21D;53920;51.094;5.902;2022-08-11T11:12:30;44.06;4.03
67005;HTU21D;53920;51.094;5.902;2022-08-11T11:15:19;43.93;4.54
67005;HTU21D;53920;51.094;5.902;2022-08-11T11:18:25;44.06;4.09
67005;HTU21D;53920;51.094;5.902;2022-08-11T11:23:43;44.50;3.86
67005;HTU21D;53920;51.094;5.902;2022-08-11T11:26:42;44.24;3.74
67005;HTU21D;53920;51.094;5.902;2022-08-11T11:37:34;43.63;4.68
67005;HTU21D;53920;51.094;5.902;2022-08-11T11:40:09;44.51;4.04
67005;HTU21D;53920;51.094;5.902;2022-08-11T11:42:37;45.18;3.76
67005;HTU21D;53920;51.094;5.902;2022-08-11T11:45:06;45.56;3.09
67005;HTU21D;53920;51.094;5.902;2022-08-11T11:47:35;45.78;2.96
67005;HTU21D;53920;51.094;5.902;2022-08-11T11:50:06;45.74;2.60
67005;HTU21D;53920;51.094;5.902;2022-08-11T11:52:34;45.59;2.80
67005;HTU21D;53920;51.094;5.902;2022-08-11T11:55:02;45.43;2.58
67005;HTU21D;53920;51.094;5.902;2022-08-11T11:57:29;45.44;2.75
67005;HTU21D;53920;51.094;5.902;2022-08-11T12:00:17;45.61;2.61
67005;HTU21D;53920;51.094;5.902;2022-08-11T12:03:07;45.31;2.87
67005;HTU21D;53920;51.094;5.902;2022-08-11T12:05:35;45.10;2.91
67005;HTU21D;53920;51.094;5.902;2022-08-11T12:08:03;45.07;2.81
67005;HTU21D;53920;51.094;5.902;2022-08-11T12:11:02;45.21;2.97
67005;HTU21D;53920;51.094;5.902;2022-08-11T12:13:52;45.56;3.05
67005;HTU21D;53920;51.094;5.902;2022-08-11T12:16:22;45.76;2.73
67005;HTU21D;53920;51.094;5.902;2022-08-11T12:18:56;46.02;2.78
67005;HTU21D;53920;51.094;5.902;2022-08-11T12:21:25;45.66;2.54
67005;HTU21D;53920;51.094;5.902;2022-08-11T12:23:54;45.51;2.86
67005;HTU21D;53920;51.094;5.902;2022-08-11T12:26:40;45.41;3.22
67005;HTU21D;53920;51.094;5.902;2022-08-11T12:29:27;45.38;3.06
67005;HTU21D;53920;51.094;5.902;2022-08-11T12:31:54;45.47;3.35
67005;HTU21D;53920;51.094;5.902;2022-08-11T12:34:21;45.51;3.12
67005;HTU21D;53920;51.094;5.902;2022-08-11T12:36:58;45.66;3.32
67005;HTU21D;53920;51.094;5.902;2022-08-11T12:39:33;45.74;2.96
67005;HTU21D;53920;51.094;5.902;2022-08-11T12:42:18;45.85;2.88
67005;HTU21D;53920;51.094;5.902;2022-08-11T12:45:11;45.60;3.02
67005;HTU21D;53920;51.094;5.902;2022-08-11T12:50:55;44.97;3.36
67005;HTU21D;53920;51.094;5.902;2022-08-11T12:53:52;44.89;3.38
67005;HTU21D;53920;51.094;5.902;2022-08-11T12:56:20;44.70;3.47
67005;HTU21D;53920;51.094;5.902;2022-08-11T12:59:07;44.92;3.53
67005;HTU21D;53920;51.094;5.902;2022-08-11T13:01:53;44.82;3.57
67005;HTU21D;53920;51.094;5.902;2022-08-11T13:04:41;44.43;3.93
67005;HTU21D;53920;51.094;5.902;2022-08-11T13:07:21;44.22;3.93
67005;HTU21D;53920;51.094;5.902;2022-08-11T13:09:49;43.68;4.42
67005;HTU21D;53920;51.094;5.902;2022-08-11T13:12:22;43.65;4.33
67005;HTU21D;53920;51.094;5.902;2022-08-11T13:15:10;43.62;4.12
67005;HTU21D;53920;51.094;5.902;2022-08-11T13:17:39;43.66;4.29
67005;HTU21D;53920;51.094;5.902;2022-08-11T13:20:08;42.81;4.82
67005;HTU21D;53920;51.094;5.902;2022-08-11T13:22:36;42.31;5.21
67005;HTU21D;53920;51.094;5.902;2022-08-11T13:25:03;42.68;5.20
67005;HTU21D;53920;51.094;5.902;2022-08-11T13:27:30;43.09;4.73
67005;HTU21D;53920;51.094;5.902;2022-08-11T13:29:57;42.75;4.64
67005;HTU21D;53920;51.094;5.902;2022-08-11T13:32:45;42.57;4.57
67005;HTU21D;53920;51.094;5.902;2022-08-11T13:35:13;42.30;4.73
67005;HTU21D;53920;51.094;5.902;2022-08-11T13:37:45;42.38;4.76
67005;HTU21D;53920;51.094;5.902;2022-08-11T13:40:15;42.67;4.29
67005;HTU21D;53920;51.094;5.902;2022-08-11T13:42:42;42.75;4.39
67005;HTU21D;53920;51.094;5.902;2022-08-11T13:45:13;42.68;4.26
67005;HTU21D;53920;51.094;5.902;2022-08-11T13:47:40;42.61;4.79
67005;HTU21D;53920;51.094;5.902;2022-08-11T13:50:08;42.90;4.86
67005;HTU21D;53920;51.094;5.902;2022-08-11T13:52:37;43.17;4.48
67005;HTU21D;53920;51.094;5.902;2022-08-11T13:55:06;43.34;4.23
67005;HTU21D;53920;51.094;5.902;2022-08-11T13:57:34;43.51;4.12
67005;HTU21D;53920;51.094;5.902;2022-08-11T14:00:02;43.58;4.06
67005;HTU21D;53920;51.094;5.902;2022-08-11T14:02:47;43.16;4.50
67005;HTU21D;53920;51.094;5.902;2022-08-11T14:05:17;43.27;4.87
67005;HTU21D;53920;51.094;5.902;2022-08-11T14:07:54;43.35;4.89
67005;HTU21D;53920;51.094;5.902;2022-08-11T14:10:27;43.36;4.96
67005;HTU21D;53920;51.094;5.902;2022-08-11T14:13:00;43.20;4.91
67005;HTU21D;53920;51.094;5.902;2022-08-11T14:15:47;43.21;5.03
67005;HTU21D;53920;51.094;5.902;2022-08-11T14:18:27;43.46;4.66
67005;HTU21D;53920;51.094;5.902;2022-08-11T14:21:00;43.23;5.14
67005;HTU21D;53920;51.094;5.902;2022-08-11T14:23:51;43.13;5.34
67005;HTU21D;53920;51.094;5.902;2022-08-11T14:26:26;43.19;5.02
67005;HTU21D;53920;51.094;5.902;2022-08-11T14:29:13;42.87;5.47
67005;HTU21D;53920;51.094;5.902;2022-08-11T14:31:59;42.84;5.26
67005;HTU21D;53920;51.094;5.902;2022-08-11T14:34:28;42.09;5.70
67005;HTU21D;53920;51.094;5.902;2022-08-11T14:36:58;41.36;6.10
67005;HTU21D;53920;51.094;5.902;2022-08-11T14:39:28;40.28;6.78
67005;HTU21D;53920;51.094;5.902;2022-08-11T14:41:56;39.89;7.86
67005;HTU21D;53920;51.094;5.902;2022-08-11T14:44:48;40.24;7.84
67005;HTU21D;53920;51.094;5.902;2022-08-11T14:47:36;40.45;7.73
67005;HTU21D;53920;51.094;5.902;2022-08-11T14:50:05;40.47;7.45
67005;HTU21D;53920;51.094;5.902;2022-08-11T14:52:33;40.54;7.50
67005;HTU21D;53920;51.094;5.902;2022-08-11T14:55:01;40.55;7.68
67005;HTU21D;53920;51.094;5.902;2022-08-11T14:57:47;40.57;7.96
67005;HTU21D;53920;51.094;5.902;2022-08-11T15:00:16;40.45;7.41
67005;HTU21D;53920;51.094;5.902;2022-08-11T15:02:45;40.17;8.19
67005;HTU21D;53920;51.094;5.902;2022-08-11T15:05:31;39.83;8.69
67005;HTU21D;53920;51.094;5.902;2022-08-11T15:07:59;39.34;8.66
67005;HTU21D;53920;51.094;5.902;2022-08-11T15:10:26;38.75;9.08
67005;HTU21D;53920;51.094;5.902;2022-08-11T15:12:53;38.51;9.79
67005;HTU21D;53920;51.094;5.902;2022-08-11T15:15:21;38.28;10.02
67005;HTU21D;53920;51.094;5.902;2022-08-11T15:18:10;37.91;10.98
67005;HTU21D;53920;51.094;5.902;2022-08-11T15:20:37;37.73;11.59
67005;HTU21D;53920;51.094;5.902;2022-08-11T15:23:22;37.51;11.85
67005;HTU21D;53920;51.094;5.902;2022-08-11T15:26:18;37.27;12.09
67005;HTU21D;53920;51.094;5.902;2022-08-11T15:29:08;36.98;12.78
67005;HTU21D;53920;51.094;5.902;2022-08-11T15:32:10;36.81;13.17
67005;HTU21D;53920;51.094;5.902;2022-08-11T15:34:58;36.71;12.71
67005;HTU21D;53920;51.094;5.902;2022-08-11T15:37:45;36.43;12.36
67005;HTU21D;53920;51.094;5.902;2022-08-11T15:40:20;36.29;12.54
67005;HTU21D;53920;51.094;5.902;2022-08-11T15:43:14;36.16;13.26
67005;HTU21D;53920;51.094;5.902;2022-08-11T15:46:09;36.08;13.49
67005;HTU21D;53920;51.094;5.902;2022-08-11T15:48:58;35.95;13.37
67005;HTU21D;53920;51.094;5.902;2022-08-11T15:51:33;35.81;13.81
67005;HTU21D;53920;51.094;5.902;2022-08-11T15:54:06;35.80;14.48
67005;HTU21D;53920;51.094;5.902;2022-08-11T15:56:39;35.79;14.29
67005;HTU21D;53920;51.094;5.902;2022-08-11T15:59:10;35.63;13.94
67005;HTU21D;53920;51.094;5.902;2022-08-11T16:01:57;35.52;14.31
67005;HTU21D;53920;51.094;5.902;2022-08-11T16:04:38;35.42;14.55
67005;HTU21D;53920;51.094;5.902;2022-08-11T16:07:09;35.34;15.04
67005;HTU21D;53920;51.094;5.902;2022-08-11T16:09:37;35.21;15.30
67005;HTU21D;53920;51.094;5.902;2022-08-11T16:12:07;35.09;15.80
67005;HTU21D;53920;51.094;5.902;2022-08-11T16:14:42;35.05;16.05
67005;HTU21D;53920;51.094;5.902;2022-08-11T16:17:33;34.98;16.03
67005;HTU21D;53920;51.094;5.902;2022-08-11T16:20:02;34.90;15.94
67005;HTU21D;53920;51.094;5.902;2022-08-11T16:22:32;34.86;16.43
67005;HTU21D;53920;51.094;5.902;2022-08-11T16:25:13;34.81;16.34
67005;HTU21D;53920;51.094;5.902;2022-08-11T16:27:44;34.75;16.44
67005;HTU21D;53920;51.094;5.902;2022-08-11T16:30:11;34.73;17.08
67005;HTU21D;53920;51.094;5.902;2022-08-11T16:32:42;34.65;16.86
67005;HTU21D;53920;51.094;5.902;2022-08-11T16:35:14;34.60;17.28
67005;HTU21D;53920;51.094;5.902;2022-08-11T16:38:03;34.52;16.81
67005;HTU21D;53920;51.094;5.902;2022-08-11T16:40:55;34.38;16.76
67005;HTU21D;53920;51.094;5.902;2022-08-11T16:43:24;34.31;16.87
67005;HTU21D;53920;51.094;5.902;2022-08-11T16:46:13;34.20;17.25
67005;HTU21D;53920;51.094;5.902;2022-08-11T16:49:24;34.08;17.25
67005;HTU21D;53920;51.094;5.902;2022-08-11T16:51:47;34.05;17.47
67005;HTU21D;53920;51.094;5.902;2022-08-11T16:54:13;33.93;17.51
67005;HTU21D;53920;51.094;5.902;2022-08-11T16:56:44;33.87;17.73
67005;HTU21D;53920;51.094;5.902;2022-08-11T16:59:23;33.82;18.26
67005;HTU21D;53920;51.094;5.902;2022-08-11T17:02:04;33.77;18.15
67005;HTU21D;53920;51.094;5.902;2022-08-11T17:04:49;33.73;18.43
67005;HTU21D;53920;51.094;5.902;2022-08-11T17:07:40;33.58;18.31
67005;HTU21D;53920;51.094;5.902;2022-08-11T17:10:34;33.48;18.15
67005;HTU21D;53920;51.094;5.902;2022-08-11T17:13:27;33.37;18.23
67005;HTU21D;53920;51.094;5.902;2022-08-11T17:15:59;33.29;18.93
67005;HTU21D;53920;51.094;5.902;2022-08-11T17:21:22;33.13;18.80
67005;HTU21D;53920;51.094;5.902;2022-08-11T17:23:52;33.06;19.07
67005;HTU21D;53920;51.094;5.902;2022-08-11T17:28:53;32.88;18.99
67005;HTU21D;53920;51.094;5.902;2022-08-11T17:31:22;32.77;18.68
67005;HTU21D;53920;51.094;5.902;2022-08-11T17:34:08;32.67;19.27
67005;HTU21D;53920;51.094;5.902;2022-08-11T17:36:55;32.55;19.39
67005;HTU21D;53920;51.094;5.902;2022-08-11T17:39:26;32.45;20.07
67005;HTU21D;53920;51.094;5.902;2022-08-11T17:41:54;32.35;20.82
67005;HTU21D;53920;51.094;5.902;2022-08-11T17:44:42;32.24;21.34
67005;HTU21D;53920;51.094;5.902;2022-08-11T17:47:29;32.07;21.18
67005;HTU21D;53920;51.094;5.902;2022-08-11T17:50:16;31.97;21.05
67005;HTU21D;53920;51.094;5.902;2022-08-11T17:52:44;31.87;21.22
67005;HTU21D;53920;51.094;5.902;2022-08-11T17:55:31;31.79;21.29
67005;HTU21D;53920;51.094;5.902;2022-08-11T17:58:18;31.69;21.66
67005;HTU21D;53920;51.094;5.902;2022-08-11T18:01:07;31.64;21.88
67005;HTU21D;53920;51.094;5.902;2022-08-11T18:03:37;31.51;22.64
67005;HTU21D;53920;51.094;5.902;2022-08-11T18:06:07;31.42;22.87
67005;HTU21D;53920;51.094;5.902;2022-08-11T18:08:42;31.34;23.56
67005;HTU21D;53920;51.094;5.902;2022-08-11T18:11:34;31.22;23.82
67005;HTU21D;53920;51.094;5.902;2022-08-11T18:14:20;31.11;24.27
67005;HTU21D;53920;51.094;5.902;2022-08-11T18:17:06;30.97;24.89
67005;HTU21D;53920;51.094;5.902;2022-08-11T18:19:50;30.82;24.96
67005;HTU21D;53920;51.094;5.902;2022-08-11T18:22:38;30.69;25.27
67005;HTU21D;53920;51.094;5.902;2022-08-11T18:25:27;30.54;25.75
67005;HTU21D;53920;51.094;5.902;2022-08-11T18:28:19;30.40;26.10
67005;HTU21D;53920;51.094;5.902;2022-08-11T18:31:08;30.26;26.74
67005;HTU21D;53920;51.094;5.902;2022-08-11T18:33:55;30.13;26.31
67005;HTU21D;53920;51.094;5.902;2022-08-11T18:36:49;30.01;26.94
67005;HTU21D;53920;51.094;5.902;2022-08-11T18:39:43;29.87;27.38
67005;HTU21D;53920;51.094;5.902;2022-08-11T18:42:31;29.71;27.81
67005;HTU21D;53920;51.094;5.902;2022-08-11T18:45:19;29.53;28.04
67005;HTU21D;53920;51.094;5.902;2022-08-11T18:48:12;29.38;28.32
67005;HTU21D;53920;51.094;5.902;2022-08-11T18:51:01;29.26;28.56
67005;HTU21D;53920;51.094;5.902;2022-08-11T18:53:52;29.13;28.82
67005;HTU21D;53920;51.094;5.902;2022-08-11T18:56:42;28.97;29.60
67005;HTU21D;53920;51.094;5.902;2022-08-11T18:59:32;28.76;30.15
67005;HTU21D;53920;51.094;5.902;2022-08-11T19:02:23;28.59;30.29
67005;HTU21D;53920;51.094;5.902;2022-08-11T19:05:10;28.48;30.75
67005;HTU21D;53920;51.094;5.902;2022-08-11T19:07:58;28.33;30.84
67005;HTU21D;53920;51.094;5.902;2022-08-11T19:10:46;28.21;31.11
67005;HTU21D;53920;51.094;5.902;2022-08-11T19:13:33;28.10;31.22
67005;HTU21D;53920;51.094;5.902;2022-08-11T19:16:23;27.99;31.53
67005;HTU21D;53920;51.094;5.902;2022-08-11T19:19:09;27.86;31.90
67005;HTU21D;53920;51.094;5.902;2022-08-11T19:21:57;27.76;32.00
67005;HTU21D;53920;51.094;5.902;2022-08-11T19:24:47;27.65;32.03
67005;HTU21D;53920;51.094;5.902;2022-08-11T19:27:33;27.50;32.60
67005;HTU21D;53920;51.094;5.902;2022-08-11T19:30:17;27.37;32.85
67005;HTU21D;53920;51.094;5.902;2022-08-11T19:33:03;27.26;33.69
67005;HTU21D;53920;51.094;5.902;2022-08-11T19:35:48;27.12;33.70
67005;HTU21D;53920;51.094;5.902;2022-08-11T19:38:36;27.00;33.76
67005;HTU21D;53920;51.094;5.902;2022-08-11T19:41:23;26.90;34.11
67005;HTU21D;53920;51.094;5.902;2022-08-11T19:44:10;26.79;34.09
67005;HTU21D;53920;51.094;5.902;2022-08-11T19:46:57;26.67;34.50
67005;HTU21D;53920;51.094;5.902;2022-08-11T19:49:45;26.55;34.64
67005;HTU21D;53920;51.094;5.902;2022-08-11T19:52:30;26.45;34.95
67005;HTU21D;53920;51.094;5.902;2022-08-11T19:55:17;26.34;34.99
67005;HTU21D;53920;51.094;5.902;2022-08-11T19:58:05;26.26;35.08
67005;HTU21D;53920;51.094;5.902;2022-08-11T20:00:49;26.22;35.47
67005;HTU21D;53920;51.094;5.902;2022-08-11T20:03:34;26.09;35.60
67005;HTU21D;53920;51.094;5.902;2022-08-11T20:06:20;25.99;35.90
67005;HTU21D;53920;51.094;5.902;2022-08-11T20:09:07;25.90;35.79
67005;HTU21D;53920;51.094;5.902;2022-08-11T20:11:55;25.78;36.69